createdAt,value
2018-11-29T00:01:32.990Z,-3.69
2018-11-29T00:04:05.053Z,-3.59
2018-11-29T00:06:37.314Z,-3.57
2018-11-29T00:09:09.336Z,-3.51
2018-11-29T00:11:41.364Z,-3.57
2018-11-29T00:14:13.546Z,-3.71
2018-11-29T00:16:45.626Z,-3.73
2018-11-29T00:19:17.681Z,-3.77
2018-11-29T00:21:49.717Z,-3.63
2018-11-29T00:24:21.886Z,-3.65
2018-11-29T00:26:53.920Z,-3.67
2018-11-29T00:29:25.973Z,-3.70
2018-11-29T00:31:57.987Z,-3.71
2018-11-29T00:34:30.051Z,-3.75
2018-11-29T00:37:02.052Z,-3.61
2018-11-29T00:39:34.124Z,-3.59
2018-11-29T00:42:06.177Z,-3.68
2018-11-29T00:44:38.593Z,-3.62
2018-11-29T00:47:10.601Z,-3.56
2018-11-29T00:49:42.649Z,-3.55
2018-11-29T00:52:14.653Z,-3.91
2018-11-29T00:54:46.705Z,-3.49
2018-11-29T00:57:18.701Z,-3.41
2018-11-29T00:59:50.794Z,-3.47
2018-11-29T01:02:22.822Z,-3.45
2018-11-29T01:04:54.894Z,-3.46
2018-11-29T01:07:26.965Z,-3.55
2018-11-29T01:09:59.065Z,-3.52
2018-11-29T01:12:31.133Z,-3.42
2018-11-29T01:15:03.825Z,-3.52
2018-11-29T01:17:35.852Z,-3.50
2018-11-29T01:20:10.170Z,-3.53
2018-11-29T01:22:42.246Z,-3.53
2018-11-29T01:25:14.883Z,-3.62
2018-11-29T01:27:48.056Z,-3.62
2018-11-29T01:30:20.532Z,-3.53
2018-11-29T01:32:52.559Z,-3.44
2018-11-29T01:35:24.648Z,-3.46
2018-11-29T01:37:56.705Z,-3.52
2018-11-29T01:40:28.733Z,-3.56
2018-11-29T01:43:00.779Z,-3.53
2018-11-29T01:45:32.893Z,-3.68
2018-11-29T01:48:05.062Z,-3.57
2018-11-29T01:50:37.134Z,-3.50
2018-11-29T01:53:09.182Z,-3.48
2018-11-29T01:55:41.235Z,-3.51
2018-11-29T01:58:13.375Z,-3.59
2018-11-29T02:00:45.430Z,-3.52
2018-11-29T02:03:17.493Z,-3.55
2018-11-29T02:05:49.553Z,-3.61
2018-11-29T02:08:21.592Z,-3.59
2018-11-29T02:10:53.644Z,-3.65
2018-11-29T02:13:25.749Z,-3.64
2018-11-29T02:15:57.791Z,-3.60
2018-11-29T02:18:29.829Z,-3.56
2018-11-29T02:21:01.950Z,-3.57
2018-11-29T02:23:34.029Z,-3.56
2018-11-29T02:26:06.122Z,-3.52
2018-11-29T02:28:39.730Z,-3.58
2018-11-29T02:31:11.794Z,-3.63
2018-11-29T02:33:43.810Z,-3.74
2018-11-29T02:36:16.181Z,-3.66
2018-11-29T02:38:48.266Z,-3.64
2018-11-29T02:41:20.374Z,-3.67
2018-11-29T02:43:52.426Z,-3.73
2018-11-29T02:46:24.484Z,-3.63
2018-11-29T02:48:56.510Z,-3.55
2018-11-29T02:51:28.586Z,-3.52
2018-11-29T02:54:00.598Z,-3.62
2018-11-29T02:56:32.654Z,-3.66
2018-11-29T02:59:04.985Z,-3.52
2018-11-29T03:01:37.045Z,-3.50
2018-11-29T03:04:09.066Z,-3.58
2018-11-29T03:06:41.129Z,-3.50
2018-11-29T03:09:13.223Z,-3.51
2018-11-29T03:11:45.322Z,-3.57
2018-11-29T03:14:17.374Z,-3.41
2018-11-29T03:16:49.426Z,-3.36
2018-11-29T03:19:21.481Z,-3.42
2018-11-29T03:21:53.668Z,-3.38
2018-11-29T03:24:25.699Z,-3.38
2018-11-29T03:26:57.766Z,-3.38
2018-11-29T03:29:29.810Z,-3.39
2018-11-29T03:32:01.884Z,-3.40
2018-11-29T03:34:33.941Z,-3.42
2018-11-29T03:37:06.311Z,-3.43
2018-11-29T03:39:38.393Z,-3.44
2018-11-29T03:42:10.446Z,-3.49
2018-11-29T03:44:42.490Z,-3.52
2018-11-29T03:47:14.561Z,-3.59
2018-11-29T03:49:46.589Z,-3.51
2018-11-29T03:52:18.649Z,-3.49
2018-11-29T03:54:50.710Z,-3.51
2018-11-29T03:57:22.913Z,-3.45
2018-11-29T03:59:54.949Z,-3.49
2018-11-29T04:02:27.077Z,-3.49
2018-11-29T04:04:59.130Z,-3.62
2018-11-29T04:07:31.377Z,-3.54
2018-11-29T04:10:03.982Z,-3.49
2018-11-29T04:12:36.086Z,-3.48
2018-11-29T04:15:09.510Z,-3.49
2018-11-29T04:17:41.591Z,-3.46
2018-11-29T04:20:14.659Z,-3.48
2018-11-29T04:22:46.703Z,-3.57
2018-11-29T04:25:18.777Z,-3.55
2018-11-29T04:27:50.851Z,-3.48
2018-11-29T04:30:22.913Z,-3.53
2018-11-29T04:32:54.974Z,-3.59
2018-11-29T04:35:27.015Z,-3.63
2018-11-29T04:37:59.089Z,-3.49
2018-11-29T04:40:31.123Z,-3.54
2018-11-29T04:43:03.215Z,-3.60
2018-11-29T04:46:43.693Z,-3.63
2018-11-29T04:49:15.823Z,-3.66
2018-11-29T04:51:47.893Z,-3.65
2018-11-29T04:54:19.962Z,-3.60
2018-11-29T04:56:52.035Z,-3.53
2018-11-29T04:59:24.112Z,-3.53
2018-11-29T05:01:56.211Z,-3.55
2018-11-29T05:04:28.272Z,-3.58
2018-11-29T05:07:00.281Z,-3.51
2018-11-29T05:09:32.342Z,-3.50
2018-11-29T05:12:04.372Z,-3.52
2018-11-29T05:14:36.399Z,-3.51
2018-11-29T05:17:08.445Z,-3.50
2018-11-29T05:19:40.501Z,-3.51
2018-11-29T05:22:12.527Z,-3.61
2018-11-29T05:24:44.581Z,-3.59
2018-11-29T05:27:16.708Z,-3.51
2018-11-29T05:29:48.818Z,-3.66
2018-11-29T05:32:20.885Z,-3.60
2018-11-29T05:34:52.943Z,-3.59
2018-11-29T05:37:25.045Z,-3.53
2018-11-29T05:39:57.112Z,-3.62
2018-11-29T05:42:29.201Z,-3.58
2018-11-29T05:45:01.254Z,-3.64
2018-11-29T05:47:33.356Z,-3.64
2018-11-29T05:50:07.504Z,-3.71
2018-11-29T05:52:39.854Z,-3.69
2018-11-29T05:55:12.092Z,-3.62
2018-11-29T05:57:44.155Z,-3.62
2018-11-29T06:00:16.239Z,-3.66
2018-11-29T06:02:48.290Z,-3.66
2018-11-29T06:05:20.361Z,-3.63
2018-11-29T06:07:52.413Z,-3.61
2018-11-29T06:10:24.499Z,-3.58
2018-11-29T06:12:56.564Z,-3.63
2018-11-29T06:15:28.627Z,-4.33
2018-11-29T06:18:00.662Z,-3.64
2018-11-29T06:20:32.724Z,-3.72
2018-11-29T06:23:05.428Z,-3.67
2018-11-29T06:25:37.473Z,-3.68
2018-11-29T06:28:09.462Z,-3.70
2018-11-29T06:30:41.526Z,-3.67
2018-11-29T06:33:13.517Z,-3.67
2018-11-29T06:35:45.557Z,-3.74
2018-11-29T06:38:17.561Z,-3.67
2018-11-29T06:40:49.591Z,-3.73
2018-11-29T06:43:21.653Z,-3.66
2018-11-29T06:45:53.720Z,-3.66
2018-11-29T06:48:25.745Z,-3.68
2018-11-29T06:50:57.756Z,-3.72
2018-11-29T06:53:35.386Z,-3.69
2018-11-29T06:56:07.449Z,-3.61
2018-11-29T06:58:39.645Z,-3.50
2018-11-29T07:01:11.735Z,-3.52
2018-11-29T07:03:43.741Z,-3.56
2018-11-29T07:06:17.502Z,-3.50
2018-11-29T07:08:49.558Z,-3.47
2018-11-29T07:11:21.569Z,-3.43
2018-11-29T07:13:53.626Z,-3.37
2018-11-29T07:16:25.731Z,-3.36
2018-11-29T07:18:57.765Z,-3.31
2018-11-29T07:21:41.581Z,-3.29
2018-11-29T07:24:13.573Z,-3.28
2018-11-29T07:26:45.629Z,-3.25
2018-11-29T07:29:17.631Z,-3.16
2018-11-29T07:31:49.674Z,-3.11
2018-11-29T07:34:21.732Z,-3.08
2018-11-29T07:36:53.749Z,-3.05
2018-11-29T07:39:26.814Z,-3.05
2018-11-29T07:41:58.876Z,-2.99
2018-11-29T07:44:30.928Z,-2.91
2018-11-29T07:47:03.049Z,-2.86
2018-11-29T07:49:35.096Z,-2.84
2018-11-29T07:52:07.141Z,-2.73
2018-11-29T07:54:39.168Z,-2.65
2018-11-29T07:57:11.218Z,-2.54
2018-11-29T07:59:43.268Z,-2.54
2018-11-29T08:02:15.349Z,-2.47
2018-11-29T08:04:47.416Z,-2.24
2018-11-29T08:07:19.969Z,-2.11
2018-11-29T08:09:52.048Z,-1.96
2018-11-29T08:12:24.153Z,-1.73
2018-11-29T08:14:56.217Z,-1.56
2018-11-29T08:17:28.435Z,-1.57
2018-11-29T08:20:00.618Z,-1.41
2018-11-29T08:22:32.745Z,-1.32
2018-11-29T08:25:04.881Z,-1.26
2018-11-29T08:27:36.870Z,-1.15
2018-11-29T08:30:15.845Z,-1.04
2018-11-29T08:32:47.830Z,-1.06
2018-11-29T08:35:19.814Z,-1.00
2018-11-29T08:37:51.804Z,-0.92
2018-11-29T08:40:23.790Z,-0.65
2018-11-29T08:42:55.785Z,-0.51
2018-11-29T08:45:27.789Z,-0.71
2018-11-29T08:48:00.789Z,-0.85
2018-11-29T08:50:32.805Z,-0.67
2018-11-29T08:53:05.163Z,-0.31
2018-11-29T08:55:37.121Z,-0.24
2018-11-29T08:58:09.096Z,-0.41
2018-11-29T09:00:41.082Z,-0.15
2018-11-29T09:03:13.082Z,-0.36
2018-11-29T09:05:45.040Z,-0.12
2018-11-29T09:08:17.045Z,0.23
2018-11-29T09:10:49.027Z,0.53
2018-11-29T09:13:20.993Z,0.80
2018-11-29T09:15:52.967Z,0.54
2018-11-29T09:18:25.096Z,0.59
2018-11-29T09:20:57.252Z,0.01
2018-11-29T09:23:29.240Z,-0.09
2018-11-29T09:26:01.234Z,-0.39
2018-11-29T09:28:33.233Z,-0.46
2018-11-29T09:31:05.486Z,-0.18
2018-11-29T09:33:37.473Z,-0.32
2018-11-29T09:36:09.453Z,-0.03
2018-11-29T09:38:41.466Z,0.60
2018-11-29T09:41:13.537Z,0.77
2018-11-29T09:43:45.581Z,0.67
2018-11-29T09:46:17.559Z,0.56
2018-11-29T09:48:49.774Z,0.52
2018-11-29T09:51:21.845Z,0.51
2018-11-29T09:53:53.985Z,0.59
2018-11-29T09:56:25.996Z,0.70
2018-11-29T09:58:58.106Z,0.93
2018-11-29T10:01:30.168Z,1.10
2018-11-29T10:04:02.213Z,1.21
2018-11-29T10:06:34.188Z,1.19
2018-11-29T10:09:08.587Z,1.61
2018-11-29T10:11:40.566Z,1.71
2018-11-29T10:14:12.533Z,1.67
2018-11-29T10:16:44.532Z,1.62
2018-11-29T10:19:16.559Z,1.39
2018-11-29T10:21:48.559Z,1.48
2018-11-29T10:24:20.530Z,1.47
2018-11-29T10:26:52.497Z,1.80
2018-11-29T10:29:24.511Z,1.15
2018-11-29T10:31:56.481Z,1.16
2018-11-29T10:34:28.490Z,1.02
2018-11-29T10:37:00.482Z,1.20
2018-11-29T10:39:32.509Z,1.45
2018-11-29T10:42:04.645Z,1.50
2018-11-29T10:44:36.709Z,1.60
2018-11-29T10:47:08.794Z,1.58
2018-11-29T10:49:40.877Z,1.39
2018-11-29T10:52:12.874Z,1.16
2018-11-29T10:54:44.834Z,1.52
2018-11-29T10:57:16.838Z,1.59
2018-11-29T10:59:52.889Z,1.56
2018-11-29T11:02:28.773Z,1.93
2018-11-29T11:05:00.827Z,1.81
2018-11-29T11:07:33.060Z,2.05
2018-11-29T11:10:05.432Z,1.87
2018-11-29T11:12:37.433Z,1.55
2018-11-29T11:15:09.503Z,1.53
2018-11-29T11:17:41.592Z,1.63
2018-11-29T11:20:13.711Z,1.07
2018-11-29T11:22:47.757Z,1.58
2018-11-29T11:25:19.778Z,1.76
2018-11-29T11:27:51.853Z,2.06
2018-11-29T11:30:23.845Z,1.92
2018-11-29T11:32:55.850Z,1.82
2018-11-29T11:35:29.178Z,1.81
2018-11-29T11:38:01.204Z,1.81
2018-11-29T11:40:33.213Z,2.12
2018-11-29T11:43:06.082Z,1.92
2018-11-29T11:45:38.088Z,2.02
2018-11-29T11:48:10.114Z,1.93
2018-11-29T11:50:42.092Z,1.71
2018-11-29T11:53:14.050Z,1.96
2018-11-29T11:55:53.115Z,2.29
2018-11-29T11:58:18.183Z,2.36
2018-11-29T12:00:50.215Z,2.21
2018-11-29T12:03:22.185Z,2.31
2018-11-29T12:05:54.267Z,2.36
2018-11-29T12:08:26.256Z,2.26
2018-11-29T12:10:58.238Z,2.01
2018-11-29T12:13:30.287Z,2.04
2018-11-29T12:16:02.308Z,2.24
2018-11-29T12:18:34.309Z,2.25
2018-11-29T12:21:06.380Z,2.28
2018-11-29T12:23:38.386Z,2.19
2018-11-29T12:26:10.388Z,2.19
2018-11-29T12:28:42.397Z,2.29
2018-11-29T12:31:14.423Z,2.35
2018-11-29T12:33:46.404Z,2.24
2018-11-29T12:36:18.436Z,2.13
2018-11-29T12:38:50.422Z,2.20
2018-11-29T12:41:22.447Z,2.09
2018-11-29T12:43:54.441Z,2.03
2018-11-29T12:46:26.445Z,1.85
2018-11-29T12:48:58.554Z,1.87
2018-11-29T12:51:30.492Z,1.90
2018-11-29T12:54:02.535Z,1.95
2018-11-29T12:56:34.518Z,2.03
2018-11-29T12:59:06.502Z,2.01
2018-11-29T13:01:38.457Z,2.08
2018-11-29T13:04:10.432Z,1.99
2018-11-29T13:06:42.442Z,1.83
2018-11-29T13:09:14.408Z,1.92
2018-11-29T13:11:46.376Z,1.92
2018-11-29T13:14:18.459Z,1.97
2018-11-29T13:16:50.404Z,1.85
2018-11-29T13:19:22.365Z,1.98
2018-11-29T13:21:54.346Z,1.90
2018-11-29T13:24:26.312Z,1.92
2018-11-29T13:26:58.566Z,1.89
2018-11-29T13:29:30.536Z,1.87
2018-11-29T13:32:02.513Z,1.94
2018-11-29T13:34:34.477Z,1.91
2018-11-29T13:37:06.479Z,1.76
2018-11-29T13:39:38.451Z,1.65
2018-11-29T13:42:10.489Z,1.65
2018-11-29T13:44:42.414Z,1.74
2018-11-29T13:47:14.379Z,1.76
2018-11-29T13:49:46.323Z,1.69
2018-11-29T13:52:18.301Z,1.65
2018-11-29T13:54:50.268Z,1.58
2018-11-29T13:57:22.224Z,1.53
2018-11-29T13:59:54.161Z,1.36
2018-11-29T14:02:26.133Z,1.35
2018-11-29T14:04:58.089Z,1.42
2018-11-29T14:07:30.025Z,1.40
2018-11-29T14:10:02.017Z,1.30
2018-11-29T14:12:33.974Z,1.33
2018-11-29T14:15:09.063Z,1.31
2018-11-29T14:17:41.051Z,1.27
2018-11-29T14:20:13.504Z,1.18
2018-11-29T14:22:45.465Z,1.03
2018-11-29T14:25:17.477Z,1.07
2018-11-29T14:27:50.721Z,1.00
2018-11-29T14:30:23.818Z,0.94
2018-11-29T14:32:56.898Z,0.94
2018-11-29T14:35:28.887Z,0.90
2018-11-29T14:38:00.833Z,0.90
2018-11-29T14:40:33.833Z,0.83
2018-11-29T14:43:06.262Z,0.74
2018-11-29T14:45:38.217Z,0.73
2018-11-29T14:48:10.166Z,0.63
2018-11-29T14:50:43.576Z,0.62
2018-11-29T14:53:15.525Z,0.61
2018-11-29T14:55:47.471Z,0.52
2018-11-29T14:58:19.928Z,0.50
2018-11-29T15:00:51.418Z,0.45
2018-11-29T15:03:23.383Z,0.35
2018-11-29T15:05:55.378Z,0.44
2018-11-29T15:08:27.356Z,0.45
2018-11-29T15:10:59.331Z,0.45
2018-11-29T15:13:31.317Z,0.37
2018-11-29T15:16:03.708Z,0.33
2018-11-29T15:18:35.673Z,0.14
2018-11-29T15:21:07.618Z,0.18
2018-11-29T15:23:39.590Z,0.01
2018-11-29T15:26:11.553Z,-0.05
2018-11-29T15:28:43.523Z,-0.16
2018-11-29T15:31:15.485Z,-0.09
2018-11-29T15:33:47.425Z,-0.09
2018-11-29T15:36:19.410Z,-0.11
2018-11-29T15:38:51.368Z,-0.06
2018-11-29T15:41:23.325Z,-0.06
2018-11-29T15:43:55.290Z,-0.16
2018-11-29T15:46:27.238Z,-0.10
2018-11-29T15:49:00.226Z,-0.22
2018-11-29T15:51:31.157Z,-0.33
2018-11-29T15:54:03.148Z,-0.33
2018-11-29T15:56:35.238Z,-0.16
2018-11-29T15:59:07.177Z,-0.12
2018-11-29T16:01:39.108Z,-0.20
2018-11-29T16:04:11.049Z,-0.29
2018-11-29T16:06:43.012Z,-0.20
2018-11-29T16:09:15.021Z,-0.28
2018-11-29T16:11:46.997Z,-0.27
2018-11-29T16:14:25.594Z,-0.33
2018-11-29T16:16:57.549Z,-0.29
2018-11-29T16:19:29.512Z,-0.21
2018-11-29T16:22:01.621Z,-0.43
2018-11-29T16:24:33.589Z,-0.39
2018-11-29T16:27:05.734Z,-0.43
2018-11-29T16:29:37.733Z,-0.44
2018-11-29T16:32:10.637Z,-0.35
2018-11-29T16:34:42.619Z,-0.34
2018-11-29T16:37:14.610Z,-0.28
2018-11-29T16:39:46.601Z,-0.31
2018-11-29T16:42:18.572Z,-1.19
2018-11-29T16:44:50.607Z,-0.37
2018-11-29T16:47:22.630Z,-0.54
2018-11-29T16:49:55.633Z,-0.51
2018-11-29T16:52:29.681Z,-0.65
2018-11-29T16:55:01.712Z,-0.56
2018-11-29T16:57:33.788Z,-0.65
2018-11-29T17:00:10.609Z,-0.58
2018-11-29T17:02:42.613Z,-0.67
2018-11-29T17:05:14.718Z,-0.76
2018-11-29T17:07:47.688Z,-0.85
2018-11-29T17:10:20.673Z,-0.84
2018-11-29T17:12:56.856Z,-0.75
2018-11-29T17:15:28.810Z,-0.85
2018-11-29T17:18:01.998Z,-0.96
2018-11-29T17:20:34.817Z,-0.84
2018-11-29T17:23:08.089Z,-0.75
2018-11-29T17:25:40.069Z,-0.66
2018-11-29T17:28:12.036Z,-0.60
2018-11-29T17:30:43.997Z,-0.67
2018-11-29T17:33:15.961Z,-0.60
2018-11-29T17:35:47.926Z,-0.62
2018-11-29T17:38:19.923Z,-0.64
2018-11-29T17:40:51.915Z,-0.71
2018-11-29T17:43:23.885Z,-0.73
2018-11-29T17:45:55.863Z,-0.64
2018-11-29T17:48:27.849Z,-0.66
2018-11-29T17:51:00.604Z,-0.58
2018-11-29T17:53:32.698Z,-0.60
2018-11-29T17:56:05.352Z,-0.57
2018-11-29T17:58:37.417Z,-0.50
2018-11-29T18:01:09.468Z,-0.57
2018-11-29T18:03:41.453Z,-0.62
2018-11-29T18:06:13.435Z,-0.63
2018-11-29T18:08:45.410Z,-0.67
2018-11-29T18:11:17.398Z,-0.58
2018-11-29T18:13:49.432Z,-0.75
2018-11-29T18:16:24.963Z,-0.73
2018-11-29T18:18:56.989Z,-0.75
2018-11-29T18:21:28.977Z,-0.67
2018-11-29T18:24:01.595Z,-0.60
2018-11-29T18:26:33.687Z,-0.57
2018-11-29T18:29:05.901Z,-0.62
2018-11-29T18:31:37.926Z,-0.68
2018-11-29T18:34:16.548Z,-0.73
2018-11-29T18:36:48.526Z,-0.71
2018-11-29T18:39:20.592Z,-0.65
2018-11-29T18:41:52.633Z,-0.67
2018-11-29T18:44:24.591Z,-0.67
2018-11-29T18:46:57.149Z,-0.69
2018-11-29T18:49:29.128Z,-0.72
2018-11-29T18:52:02.077Z,-0.77
2018-11-29T18:54:34.726Z,-0.77
2018-11-29T18:57:06.078Z,-0.66
2018-11-29T18:59:38.106Z,-0.72
2018-11-29T19:02:10.092Z,-0.64
2018-11-29T19:04:42.109Z,-0.66
2018-11-29T19:07:14.077Z,-0.73
2018-11-29T19:09:46.063Z,-0.68
2018-11-29T19:12:18.166Z,-0.69
2018-11-29T19:14:50.192Z,-0.67
2018-11-29T19:17:25.058Z,-0.67
2018-11-29T19:19:54.176Z,-0.65
2018-11-29T19:22:26.134Z,-0.71
2018-11-29T19:24:58.102Z,-0.65
2018-11-29T19:27:30.071Z,-0.69
2018-11-29T19:30:04.288Z,-0.74
2018-11-29T19:32:34.930Z,-0.77
2018-11-29T19:35:07.528Z,-0.76
2018-11-29T19:37:39.625Z,-0.72
2018-11-29T19:40:13.667Z,-0.68
2018-11-29T19:42:45.592Z,-0.66
2018-11-29T19:45:17.542Z,-0.68
2018-11-29T19:47:49.481Z,-0.65
2018-11-29T19:50:21.449Z,-0.69
2018-11-29T19:52:54.917Z,-0.72
2018-11-29T19:55:28.177Z,-0.74
2018-11-29T19:58:00.127Z,-0.73
2018-11-29T20:00:32.082Z,-0.70
2018-11-29T20:03:04.074Z,-0.71
2018-11-29T20:05:36.077Z,-0.67
2018-11-29T20:08:08.041Z,-0.76
2018-11-29T20:10:40.097Z,-0.71
2018-11-29T20:13:13.100Z,-0.77
2018-11-29T20:15:48.089Z,-0.72
2018-11-29T20:18:20.017Z,-0.71
2018-11-29T20:20:51.972Z,-0.76
2018-11-29T20:23:23.909Z,-0.75
2018-11-29T20:25:55.852Z,-0.76
2018-11-29T20:28:27.793Z,-0.74
2018-11-29T20:30:59.756Z,-0.73
2018-11-29T20:33:31.705Z,-0.73
2018-11-29T20:36:04.032Z,-0.73
2018-11-29T20:38:35.993Z,-0.78
2018-11-29T20:41:08.533Z,-0.74
2018-11-29T20:43:40.473Z,-0.81
2018-11-29T20:46:12.619Z,-0.76
2018-11-29T20:48:45.631Z,-0.72
2018-11-29T20:51:17.572Z,-0.76
2018-11-29T20:53:49.496Z,-0.69
2018-11-29T20:56:21.485Z,-0.72
2018-11-29T20:58:54.000Z,-0.71
2018-11-29T21:01:25.948Z,-0.70
2018-11-29T21:03:57.901Z,-0.64
2018-11-29T21:06:29.898Z,-0.68
2018-11-29T21:09:01.983Z,-0.58
2018-11-29T21:11:34.608Z,-0.63
2018-11-29T21:14:06.598Z,-0.64
2018-11-29T21:16:38.546Z,-0.63
2018-11-29T21:19:10.508Z,-0.55
2018-11-29T21:21:42.520Z,-0.55
2018-11-29T21:24:14.870Z,-0.55
2018-11-29T21:26:46.815Z,-0.55
2018-11-29T21:29:18.814Z,-1.14
2018-11-29T21:31:50.832Z,-0.49
2018-11-29T21:34:23.674Z,-0.49
2018-11-29T21:36:54.948Z,-0.46
2018-11-29T21:39:26.918Z,-0.47
2018-11-29T21:41:58.885Z,-0.50
2018-11-29T21:44:30.914Z,-0.48
2018-11-29T21:47:02.885Z,-0.48
2018-11-29T21:49:34.861Z,-0.46
2018-11-29T21:52:06.936Z,-0.46
2018-11-29T21:54:38.908Z,-0.46
2018-11-29T21:57:10.957Z,-0.42
2018-11-29T21:59:42.924Z,-0.37
2018-11-29T22:02:14.890Z,-0.39
2018-11-29T22:04:46.846Z,-0.47
2018-11-29T22:07:19.422Z,-0.52
2018-11-29T22:09:51.407Z,-0.44
2018-11-29T22:12:24.823Z,-0.44
2018-11-29T22:14:56.866Z,-0.51
2018-11-29T22:17:28.925Z,-0.44
2018-11-29T22:20:00.956Z,-0.45
2018-11-29T22:22:32.945Z,-0.40
2018-11-29T22:25:05.885Z,-0.40
2018-11-29T22:27:37.896Z,-0.38
2018-11-29T22:30:09.919Z,-0.46
2018-11-29T22:32:41.919Z,-0.46
2018-11-29T22:35:13.902Z,-0.36
2018-11-29T22:37:45.848Z,-0.40
2018-11-29T22:40:17.868Z,-0.47
2018-11-29T22:42:49.835Z,-0.46
2018-11-29T22:45:21.833Z,-0.48
2018-11-29T22:47:53.803Z,-0.50
2018-11-29T22:50:25.807Z,-0.56
2018-11-29T22:52:57.845Z,-0.55
2018-11-29T22:55:29.831Z,-0.62
2018-11-29T22:58:01.858Z,-0.66
2018-11-29T23:00:53.704Z,-0.75
2018-11-29T23:03:25.804Z,-0.62
2018-11-29T23:05:57.869Z,-0.65
2018-11-29T23:08:29.905Z,-0.72
2018-11-29T23:11:01.964Z,-0.68
2018-11-29T23:13:34.040Z,-0.75
2018-11-29T23:16:06.093Z,-0.73
2018-11-29T23:18:38.104Z,-0.74
2018-11-29T23:21:10.145Z,-0.72
2018-11-29T23:23:42.224Z,-0.80
2018-11-29T23:26:14.229Z,-0.83
2018-11-29T23:28:46.254Z,-0.80
2018-11-29T23:31:18.393Z,-0.78
2018-11-29T23:33:50.398Z,-0.85
2018-11-29T23:36:22.413Z,-0.86
2018-11-29T23:38:54.717Z,-0.92
2018-11-29T23:41:26.722Z,-0.84
2018-11-29T23:43:58.717Z,-0.92
2018-11-29T23:46:30.725Z,-0.85
2018-11-29T23:49:02.797Z,-0.88
2018-11-29T23:51:34.797Z,-0.89
2018-11-29T23:54:06.805Z,-0.95
2018-11-29T23:56:38.866Z,-0.98
2018-11-29T23:59:10.865Z,-0.96
